NATURA VA

 METAR AND TAF INFORMATION
METAR FOR GCFV
ADDS - METARS form results

(0325 UTC 16 January 2019)
Data provider http://aviationweather.gov/metar/data/
 
METAR text: GCFV 160300Z AUTO 33007KT 9999 NCD 15/09 Q1022
Conditions at: GCFV (FUERTEVENTURA AR, ES) observed 0300 UTC 16 January 2019
Temperature: 15.0°C (59°F)
Dewpoint: 9.0°C (48°F) [RH = 67%]
Pressure (altimeter): 30.18 inches Hg (1022.0 mb)
Winds: from the NNW (330 degrees) at 8 MPH (7 knots; 3.6 m/s)
Visibility: 6 or more miles (10+ km)
Ceiling: at least 12,000 feet AGL
Clouds: sky clear below 12,000 feet AGL
Weather: no significant weather observed at this time

METAR text: GCFV 160230Z AUTO 34008KT 9999 NCD 15/09 Q1022
Conditions at: GCFV (FUERTEVENTURA AR, ES) observed 0230 UTC 16 January 2019
Temperature: 15.0°C (59°F)
Dewpoint: 9.0°C (48°F) [RH = 67%]
Pressure (altimeter): 30.18 inches Hg (1022.0 mb)
Winds: from the NNW (340 degrees) at 9 MPH (8 knots; 4.1 m/s)
Visibility: 6 or more miles (10+ km)
Ceiling: at least 12,000 feet AGL
Clouds: sky clear below 12,000 feet AGL
Weather: no significant weather observed at this time

Forecast for: GCFV (FUERTEVENTURA AR, ES)
Text: TAF GCFV 160200Z 1603/1703 04012KT 9999 SCT030 TX20/1614Z TN15/1606Z
Forecast period: 0300 UTC 16 January 2019 to 0300 UTC 17 January 2019
Forecast type: FROM: standard forecast or significant change
Winds: from the NE (40 degrees) at 14 MPH (12 knots; 6.2 m/s)
Visibility: 6 or more miles 10+ km)
Ceiling: at least 12,000 feet AGL
Clouds: scattered clouds at 3000 feet AGL
Weather: no significant weather forecast for this period
Text: PROB40
Forecast period: 0300 to 0900 UTC 16 January 2019
Forecast type: TEMPORARY: The following changes expected for less than half the time period
Winds: from the NNW (340 degrees) at 10 MPH (9 knots; 4.6 m/s)
Visibility: missing
Ceiling: unknown
Clouds: missing
Weather: no significant weather forecast for this period

 AIRPORT MAP

 RUNWAY INFORMATION
Runway 01 Runway length 7874 ft Runway width 148 ft
Runway elevation 37 ft Runway displaced threshold 0 ft Runway heading 2
Runway 19 Runway length 7874 ft Runway width 148 ft
Runway elevation 75 ft Runway displaced threshold 0 ft Runway heading 182

 AIRPORT FREQUENCIES
Type APP Name CANARIAS A Frequency 129.3 MHZ
Type ATIS Name ATIS Frequency 118.65 MHZ
Type GND Name GND Frequency 121.7 MHZ
Type TWR Name TWR Frequency 118.5 MHZ

 AIRPORT NEAR NAVIGATION AIDS
Type VOR-DME Name Fuerteventura Frequency 114100 KHZ



Powered by Virtual Airlines Manager [v2.6.2]